Time;durP1;ratioP1;P1;durP2;ratioP2;P2;SDS_P1;SDS_P2;PMS_P1;PMS_P2;Temp;Humidity;BMP_temperature;BMP_pressure;BME280_temperature;BME280_humidity;BME280_pressure;Samples;Min_cycle;Max_cycle;Signal;HPM_P1;HPM_P2
2021/07/22 00:00:06;;;;;;;12.93;7.90;;;563.30;2355.20;;;;;;5134707;27;20027;-80
2021/07/22 00:02:32;;;;;;;11.73;8.63;;;563.20;2380.80;;;;;;5122109;27;20035;-80
2021/07/22 00:04:57;;;;;;;11.43;7.53;;;538.50;2380.80;;;;;;5122738;27;20027;-82
2021/07/22 00:07:23;;;;;;;11.70;8.15;;;563.20;2406.40;;;;;;5125315;27;20023;-78
2021/07/22 00:09:49;;;;;;;15.57;8.70;;;563.20;2406.40;;;;;;5123996;27;20028;-76
2021/07/22 00:12:15;;;;;;;14.52;8.07;;;563.20;2432.00;;;;;;5127855;27;20077;-78
2021/07/22 00:14:41;;;;;;;11.05;7.82;;;563.20;2432.00;;;;;;5126222;27;20507;-77
2021/07/22 00:17:08;;;;;;;12.95;8.50;;;563.20;2432.00;;;;;;5125103;27;20022;-82
2021/07/22 00:19:34;;;;;;;11.77;8.57;;;563.20;2432.00;;;;;;5126577;27;20029;-81
2021/07/22 00:22:00;;;;;;;13.32;9.15;;;563.20;2432.00;;;;;;5119629;27;20123;-80
2021/07/22 00:24:27;;;;;;;14.85;8.55;;;538.50;2406.40;;;;;;5134383;27;20030;-81
2021/07/22 00:26:53;;;;;;;17.70;8.70;;;563.20;2432.00;;;;;;5129437;27;20027;-81
2021/07/22 00:29:19;;;;;;;18.13;9.00;;;538.50;2406.40;;;;;;5123242;27;20015;-82
2021/07/22 00:31:44;;;;;;;14.43;8.65;;;538.50;2406.40;;;;;;5120261;27;20080;-81
2021/07/22 00:34:10;;;;;;;13.10;8.30;;;538.50;2406.40;;;;;;5130173;27;20031;-77
2021/07/22 00:36:36;;;;;;;13.10;8.95;;;538.30;2406.40;;;;;;5131528;27;20040;-81
2021/07/22 00:39:03;;;;;;;12.80;8.60;;;538.30;2406.40;;;;;;5122023;27;20023;-79
2021/07/22 00:41:29;;;;;;;16.27;9.18;;;538.30;2406.40;;;;;;5123774;27;20020;-81
2021/07/22 00:43:55;;;;;;;15.93;11.02;;;538.20;2406.40;;;;;;5128023;27;20380;-80
2021/07/22 00:46:21;;;;;;;19.92;10.05;;;538.20;2406.40;;;;;;5117855;27;20031;-77
2021/07/22 00:48:47;;;;;;;16.27;10.45;;;538.00;2406.40;;;;;;5133577;27;20034;-81
2021/07/22 00:51:13;;;;;;;17.27;10.40;;;538.00;2406.40;;;;;;5125759;27;20040;-80
2021/07/22 00:53:38;;;;;;;13.88;10.20;;;537.90;2406.40;;;;;;5126779;27;20343;-81
2021/07/22 00:56:05;;;;;;;16.73;10.90;;;537.90;2406.40;;;;;;5120175;27;20031;-76
2021/07/22 00:58:31;;;;;;;15.00;9.60;;;537.80;2406.40;;;;;;5133247;27;20034;-80
2021/07/22 01:00:57;;;;;;;14.02;9.68;;;537.90;2406.40;;;;;;5126386;27;20042;-77
2021/07/22 01:03:22;;;;;;;15.88;10.05;;;537.90;2406.40;;;;;;5121951;27;20414;-77
2021/07/22 01:05:48;;;;;;;15.05;10.38;;;537.80;2406.40;;;;;;5120020;27;20069;-80
2021/07/22 01:08:14;;;;;;;19.58;9.32;;;537.90;2406.40;;;;;;5130858;27;20027;-80
2021/07/22 01:10:39;;;;;;;14.48;8.70;;;537.80;2406.40;;;;;;5118236;27;20031;-81
2021/07/22 01:13:05;;;;;;;14.57;9.38;;;537.90;2406.40;;;;;;5125451;27;20025;-81
2021/07/22 01:15:32;;;;;;;17.50;8.65;;;538.00;2406.40;;;;;;5124064;27;20023;-81
2021/07/22 01:17:58;;;;;;;14.13;8.75;;;537.90;2406.40;;;;;;5117756;27;20034;-80
2021/07/22 01:20:26;;;;;;;17.00;9.43;;;537.90;2406.40;;;;;;5129308;27;20023;-81
2021/07/22 01:22:54;;;;;;;12.73;9.02;;;538.00;2406.40;;;;;;5119796;27;20126;-82
2021/07/22 01:25:20;;;;;;;15.30;9.23;;;538.00;2406.40;;;;;;5123624;27;20050;-80
2021/07/22 01:27:46;;;;;;;15.40;9.52;;;537.80;2406.40;;;;;;5127326;27;20027;-81
2021/07/22 01:30:13;;;;;;;16.63;9.68;;;537.80;2406.40;;;;;;5117425;27;20023;-83
2021/07/22 01:32:40;;;;;;;16.83;10.00;;;537.70;2406.40;;;;;;5134333;27;20098;-82
2021/07/22 01:35:06;;;;;;;13.77;10.18;;;537.80;2406.40;;;;;;5126425;27;20055;-82
2021/07/22 01:37:32;;;;;;;13.55;9.05;;;537.80;2406.40;;;;;;5124099;27;20038;-81
2021/07/22 01:39:58;;;;;;;13.57;10.10;;;537.80;2406.40;;;;;;5118997;27;20023;-82
2021/07/22 01:42:24;;;;;;;15.10;10.82;;;537.70;2406.40;;;;;;5130257;27;20035;-82
2021/07/22 01:44:49;;;;;;;15.10;9.95;;;512.90;2380.80;;;;;;5117351;27;20034;-83
2021/07/22 01:47:15;;;;;;;18.08;9.35;;;512.90;2380.80;;;;;;5123860;27;20034;-82
2021/07/22 01:49:42;;;;;;;15.80;9.57;;;512.90;2380.80;;;;;;5126085;27;20488;-80
2021/07/22 01:52:07;;;;;;;18.88;10.30;;;537.60;2406.40;;;;;;5117182;27;20539;-81
2021/07/22 01:54:33;;;;;;;15.75;9.32;;;537.60;2406.40;;;;;;5129361;27;20020;-82
2021/07/22 01:57:00;;;;;;;15.25;10.68;;;512.90;2380.80;;;;;;5119488;28;20109;-82
2021/07/22 01:59:35;;;;;;;14.98;10.75;;;512.90;2380.80;;;;;;5122069;28;20020;-78
2021/07/22 02:02:04;;;;;;;16.80;10.73;;;512.80;2380.80;;;;;;5128812;28;20028;-82
2021/07/22 02:04:31;;;;;;;15.80;10.45;;;512.90;2380.80;;;;;;5123740;27;20023;-81
2021/07/22 02:06:57;;;;;;;13.63;10.02;;;512.80;2380.80;;;;;;5126133;28;20022;-82
2021/07/22 02:09:23;;;;;;;15.88;10.88;;;512.80;2380.80;;;;;;5115919;28;20019;-82
2021/07/22 02:11:49;;;;;;;13.20;10.50;;;512.70;2380.80;;;;;;5112115;28;20072;-81
2021/07/22 02:14:15;;;;;;;14.27;10.65;;;512.70;2380.80;;;;;;5133074;27;20034;-81
2021/07/22 02:16:41;;;;;;;14.98;11.30;;;512.70;2380.80;;;;;;5133539;27;20019;-81
2021/07/22 02:19:07;;;;;;;18.17;11.02;;;512.80;2380.80;;;;;;5125395;27;20023;-81
2021/07/22 02:21:33;;;;;;;12.48;10.45;;;512.90;2380.80;;;;;;5130491;27;20039;-79
2021/07/22 02:23:59;;;;;;;16.92;10.35;;;512.80;2380.80;;;;;;5129031;27;20503;-81
2021/07/22 02:26:25;;;;;;;13.35;9.73;;;512.90;2380.80;;;;;;5127588;27;20020;-80
2021/07/22 02:28:51;;;;;;;18.20;10.52;;;512.80;2380.80;;;;;;5127462;27;20029;-81
2021/07/22 02:31:17;;;;;;;16.08;10.70;;;512.90;2380.80;;;;;;5128227;27;20059;-81
2021/07/22 02:33:43;;;;;;;15.88;10.93;;;512.90;2380.80;;;;;;5117126;28;20051;-81
2021/07/22 02:36:09;;;;;;;20.08;11.68;;;512.90;2380.80;;;;;;5132736;27;20015;-81
2021/07/22 02:38:34;;;;;;;15.73;9.82;;;512.90;2380.80;;;;;;5120788;27;20038;-82
2021/07/22 02:41:03;;;;;;;16.92;11.02;;;512.90;2380.80;;;;;;5124301;27;20071;-81
2021/07/22 02:43:28;;;;;;;17.33;10.32;;;512.90;2380.80;;;;;;5126486;27;20031;-78
2021/07/22 02:45:54;;;;;;;19.55;9.95;;;512.90;2380.80;;;;;;5131593;27;20488;-82
2021/07/22 02:48:20;;;;;;;16.02;10.63;;;512.90;2380.80;;;;;;5120505;27;20103;-83
2021/07/22 02:50:46;;;;;;;15.35;9.88;;;512.90;2380.80;;;;;;5132151;27;20572;-82
2021/07/22 02:53:11;;;;;;;18.02;9.82;;;512.90;2380.80;;;;;;5124332;27;20575;-79
2021/07/22 02:55:37;;;;;;;16.02;9.57;;;512.90;2380.80;;;;;;5137286;27;20114;-79
2021/07/22 02:58:06;;;;;;;19.17;10.73;;;537.60;2406.40;;;;;;5119800;27;20081;-80
2021/07/22 03:00:33;;;;;;;17.55;10.48;;;512.90;2380.80;;;;;;5133331;27;20055;-79
2021/07/22 03:03:02;;;;;;;14.13;9.82;;;512.90;2380.80;;;;;;5122877;27;20039;-81
2021/07/22 03:05:29;;;;;;;16.00;10.45;;;537.60;2406.40;;;;;;5125750;27;20027;-79
2021/07/22 03:08:03;;;;;;;16.98;9.85;;;537.60;2406.40;;;;;;5121940;27;20087;-81
2021/07/22 03:10:29;;;;;;;18.17;10.02;;;512.90;2380.80;;;;;;5132177;27;20042;-81
2021/07/22 03:12:54;;;;;;;13.82;9.68;;;537.60;2406.40;;;;;;5122688;27;20477;-79
2021/07/22 03:15:20;;;;;;;14.52;9.85;;;512.90;2380.80;;;;;;5125368;27;20040;-78
2021/07/22 03:17:46;;;;;;;14.13;9.52;;;512.90;2380.80;;;;;;5129835;27;20029;-80
2021/07/22 03:20:12;;;;;;;15.90;10.73;;;512.80;2380.80;;;;;;5119245;27;20020;-81
2021/07/22 03:22:38;;;;;;;13.38;9.85;;;512.80;2380.80;;;;;;5131462;27;20506;-81
2021/07/22 03:25:04;;;;;;;13.88;9.82;;;512.80;2380.80;;;;;;5121667;27;20024;-80
2021/07/22 03:27:30;;;;;;;13.27;9.98;;;512.80;2380.80;;;;;;5124862;27;20088;-80
2021/07/22 03:29:56;;;;;;;15.73;10.07;;;512.90;2380.80;;;;;;5129471;27;20023;-80
2021/07/22 03:32:21;;;;;;;14.23;9.77;;;512.80;2380.80;;;;;;5125507;27;20023;-81
2021/07/22 03:34:47;;;;;;;15.68;9.43;;;512.80;2380.80;;;;;;5129965;27;20500;-81
2021/07/22 03:37:14;;;;;;;17.63;10.45;;;512.80;2380.80;;;;;;5124657;27;20027;-81
2021/07/22 03:39:40;;;;;;;11.77;9.15;;;512.90;2380.80;;;;;;5122576;27;20073;-80
2021/07/22 03:42:06;;;;;;;13.85;9.73;;;512.90;2380.80;;;;;;5114655;28;20374;-81
2021/07/22 03:44:32;;;;;;;13.65;9.23;;;512.90;2380.80;;;;;;5131495;27;20435;-79
2021/07/22 03:46:58;;;;;;;16.98;10.57;;;512.90;2380.80;;;;;;5121303;27;20169;-80
2021/07/22 03:49:24;;;;;;;16.13;10.88;;;512.90;2380.80;;;;;;5125523;27;20473;-82
2021/07/22 03:51:56;;;;;;;19.10;11.85;;;512.90;2380.80;;;;;;5127996;27;20539;-79
2021/07/22 03:54:22;;;;;;;24.70;14.00;;;512.90;2380.80;;;;;;5118837;27;20062;-81
2021/07/22 03:56:48;;;;;;;27.80;13.57;;;512.80;2380.80;;;;;;5129710;27;20506;-80
2021/07/22 03:59:15;;;;;;;21.80;13.88;;;512.90;2380.80;;;;;;5124689;27;20168;-82
2021/07/22 04:01:41;;;;;;;27.48;12.98;;;512.90;2380.80;;;;;;5123866;27;20048;-81
2021/07/22 04:04:07;;;;;;;27.70;14.18;;;512.90;2380.80;;;;;;5117854;27;20035;-82
2021/07/22 04:06:41;;;;;;;27.08;13.02;;;512.90;2380.80;;;;;;5117167;27;20023;-80
2021/07/22 04:09:07;;;;;;;25.75;12.07;;;512.80;2380.80;;;;;;5127701;27;20027;-81
2021/07/22 04:11:35;;;;;;;16.00;9.35;;;512.80;2380.80;;;;;;5126697;27;20042;-80
2021/07/22 04:14:01;;;;;;;17.52;10.77;;;512.80;2380.80;;;;;;5118484;27;20487;-79
2021/07/22 04:16:27;;;;;;;21.45;10.13;;;512.80;2380.80;;;;;;5132138;27;20059;-80
2021/07/22 04:18:52;;;;;;;19.80;9.88;;;512.60;2380.80;;;;;;5120134;27;20529;-80
2021/07/22 04:21:18;;;;;;;15.00;9.77;;;512.70;2380.80;;;;;;5124183;27;20272;-80
2021/07/22 04:23:44;;;;;;;18.45;12.68;;;512.80;2380.80;;;;;;5128474;27;20080;-80
2021/07/22 04:26:15;;;;;;;20.50;13.50;;;512.60;2380.80;;;;;;5117322;27;20084;-80
2021/07/22 04:28:41;;;;;;;20.73;13.85;;;512.80;2380.80;;;;;;5129979;27;20041;-81
2021/07/22 04:31:07;;;;;;;23.13;14.82;;;512.80;2380.80;;;;;;5122899;27;20051;-81
2021/07/22 04:33:33;;;;;;;26.00;19.08;;;512.90;2380.80;;;;;;5135391;27;20046;-81
2021/07/22 04:35:58;;;;;;;31.80;21.58;;;512.90;2380.80;;;;;;5120012;27;20509;-82
2021/07/22 04:38:24;;;;;;;37.75;21.05;;;512.80;2380.80;;;;;;5131632;27;20023;-82
2021/07/22 04:40:50;;;;;;;26.13;17.65;;;512.70;2380.80;;;;;;5120562;27;20389;-82
2021/07/22 04:43:16;;;;;;;24.35;16.63;;;512.90;2380.80;;;;;;5125679;27;20118;-79
2021/07/22 04:45:42;;;;;;;28.27;19.25;;;537.70;2406.40;;;;;;5127680;27;20460;-82
2021/07/22 04:48:07;;;;;;;29.98;21.33;;;537.60;2406.40;;;;;;5118448;27;20047;-82
2021/07/22 04:50:33;;;;;;;26.23;19.63;;;537.60;2406.40;;;;;;5129940;27;20135;-80
2021/07/22 04:53:00;;;;;;;26.88;14.80;;;537.70;2406.40;;;;;;5121440;27;20084;-79
2021/07/22 04:55:26;;;;;;;19.55;12.95;;;537.80;2406.40;;;;;;5124279;27;20034;-82
2021/07/22 04:58:02;;;;;;;16.60;12.50;;;537.60;2406.40;;;;;;5129083;27;20022;-82
2021/07/22 05:00:28;;;;;;;;;;;537.90;2406.40;;;;;;5131783;27;20023;-79
2021/07/22 05:03:00;;;;;;;13.75;9.40;;;537.90;2406.40;;;;;;5120619;27;19918;-83
2021/07/22 05:05:26;;;;;;;16.60;10.35;;;537.90;2406.40;;;;;;5133609;27;20372;-80
2021/07/22 05:07:52;;;;;;;14.95;10.98;;;538.00;2406.40;;;;;;5119065;27;20024;-83
2021/07/22 05:10:18;;;;;;;20.17;11.20;;;538.10;2406.40;;;;;;5130089;27;20029;-82
2021/07/22 05:12:44;;;;;;;17.80;9.65;;;538.20;2406.40;;;;;;5117838;27;20057;-82
2021/07/22 05:15:10;;;;;;;14.68;10.00;;;538.30;2406.40;;;;;;5126227;27;20023;-82
2021/07/22 05:17:37;;;;;;;15.75;9.88;;;538.40;2406.40;;;;;;5125150;27;20377;-81
2021/07/22 05:20:03;;;;;;;15.68;10.93;;;538.40;2406.40;;;;;;5118181;27;20032;-80
2021/07/22 05:22:29;;;;;;;16.23;10.10;;;538.40;2406.40;;;;;;5130701;27;20043;-82
2021/07/22 05:24:55;;;;;;;19.75;10.77;;;538.40;2406.40;;;;;;5119210;27;20385;-79
2021/07/22 05:27:20;;;;;;;20.67;14.32;;;538.50;2406.40;;;;;;5123970;27;20038;-78
2021/07/22 05:29:46;;;;;;;24.52;15.07;;;563.20;2432.00;;;;;;5127471;27;20026;-81
2021/07/22 05:32:15;;;;;;;23.00;14.32;;;563.20;2432.00;;;;;;5121881;27;20026;-78
2021/07/22 05:34:40;;;;;;;19.65;13.18;;;563.30;2406.40;;;;;;5116531;27;20023;-80
2021/07/22 05:37:11;;;;;;;19.48;13.18;;;563.40;2432.00;;;;;;5129139;27;20019;-80
2021/07/22 05:39:36;;;;;;;22.15;13.75;;;563.30;2432.00;;;;;;5124362;27;20372;-80
2021/07/22 05:42:04;;;;;;;16.00;12.27;;;563.40;2432.00;;;;;;5132509;27;20027;-80
2021/07/22 05:44:30;;;;;;;20.20;13.93;;;563.40;2432.00;;;;;;5115377;27;20027;-80
2021/07/22 05:46:55;;;;;;;22.05;12.75;;;563.60;2432.00;;;;;;5127113;27;20031;-80
2021/07/22 05:49:22;;;;;;;18.90;13.95;;;563.70;2432.00;;;;;;5126262;27;20034;-80
2021/07/22 05:51:48;;;;;;;16.65;12.63;;;563.70;2406.40;;;;;;5119842;27;20104;-78
2021/07/22 05:54:14;;;;;;;21.63;12.23;;;563.80;2406.40;;;;;;5116520;27;20019;-80
2021/07/22 05:56:39;;;;;;;19.70;12.95;;;563.80;2406.40;;;;;;5120925;28;20078;-79
2021/07/22 05:59:05;;;;;;;34.72;15.43;;;563.90;2432.00;;;;;;5128595;28;20047;-79
2021/07/22 06:01:31;;;;;;;22.70;12.90;;;564.00;2406.40;;;;;;5132923;27;20023;-79
2021/07/22 06:03:57;;;;;;;19.10;12.05;;;564.10;2432.00;;;;;;5133733;27;20079;-81
2021/07/22 06:06:22;;;;;;;18.13;12.40;;;564.10;2432.00;;;;;;5116678;28;20073;-80
2021/07/22 06:08:49;;;;;;;22.23;15.35;;;564.10;2406.40;;;;;;5128659;27;20493;-82
2021/07/22 06:11:16;;;;;;;17.88;12.38;;;588.80;2406.40;;;;;;5124529;27;20042;-78
2021/07/22 06:13:42;;;;;;;16.38;12.25;;;563.90;2380.80;;;;;;5130191;27;20074;-79
2021/07/22 06:16:13;;;;;;;18.33;11.65;;;588.90;2406.40;;;;;;5132496;27;20071;-80
2021/07/22 06:18:40;;;;;;;17.67;11.52;;;589.00;2355.20;;;;;;5129576;27;20384;-78
2021/07/22 06:21:10;;;;;;;14.07;9.57;;;589.10;2329.60;;;;;;5122464;28;20015;-78
2021/07/22 06:23:36;;;;;;;13.40;9.55;;;589.20;2355.20;;;;;;5128120;27;20035;-80
2021/07/22 06:26:02;;;;;;;22.13;10.00;;;589.30;2329.60;;;;;;5128246;27;20026;-78
2021/07/22 06:28:28;;;;;;;15.45;9.80;;;589.40;2304.00;;;;;;5122423;28;20023;-79
2021/07/22 06:30:55;;;;;;;15.40;8.75;;;589.50;2304.00;;;;;;5124465;28;20375;-78
2021/07/22 06:33:21;;;;;;;13.55;9.25;;;589.60;2278.40;;;;;;5123938;27;20023;-83
2021/07/22 06:35:47;;;;;;;17.55;9.98;;;589.60;2278.40;;;;;;5120289;28;20027;-80
2021/07/22 06:38:13;;;;;;;13.75;9.25;;;589.70;2252.80;;;;;;5123752;28;20023;-82
2021/07/22 06:40:39;;;;;;;12.77;8.82;;;589.50;2278.40;;;;;;5121420;28;20024;-82
2021/07/22 06:43:10;;;;;;;12.20;8.13;;;614.50;2252.80;;;;;;5115341;28;20092;-81
2021/07/22 06:45:36;;;;;;;9.77;7.70;;;614.50;2252.80;;;;;;5124916;28;20027;-84
2021/07/22 06:48:05;;;;;;;12.30;8.50;;;614.60;2252.80;;;;;;5131302;28;20103;-83
2021/07/22 06:50:32;;;;;;;14.05;8.40;;;614.70;2278.40;;;;;;5127219;27;20032;-82
2021/07/22 06:52:58;;;;;;;10.75;7.78;;;614.70;2278.40;;;;;;5118703;28;20067;-83
2021/07/22 06:55:24;;;;;;;16.23;9.13;;;614.80;2227.20;;;;;;5122695;27;20496;-78
2021/07/22 06:57:49;;;;;;;14.73;8.93;;;614.90;2176.00;;;;;;5126877;28;20115;-83
2021/07/22 07:00:15;;;;;;;13.70;8.18;;;614.90;2176.00;;;;;;5116165;27;20389;-80
2021/07/22 07:02:41;;;;;;;14.25;8.23;;;615.00;2150.40;;;;;;5131115;27;20071;-80
2021/07/22 07:05:08;;;;;;;20.45;8.82;;;615.10;2150.40;;;;;;5136829;27;20029;-83
2021/07/22 07:07:45;;;;;;;16.02;8.82;;;615.20;2150.40;;;;;;5127558;27;20106;-78
2021/07/22 07:10:11;;;;;;;12.57;8.98;;;615.30;2176.00;;;;;;5125714;27;20503;-79
2021/07/22 07:12:37;;;;;;;10.65;7.93;;;640.00;2099.20;;;;;;5126823;27;20032;-78
2021/07/22 07:15:03;;;;;;;17.83;9.55;;;640.10;2099.20;;;;;;5132358;27;20100;-78
2021/07/22 07:17:29;;;;;;;14.40;8.05;;;640.10;2124.80;;;;;;5132229;27;20034;-78
2021/07/22 07:19:54;;;;;;;19.80;8.82;;;640.30;2073.60;;;;;;5132195;27;20062;-79
2021/07/22 07:22:20;;;;;;;17.17;8.75;;;640.30;2124.80;;;;;;5132169;27;20068;-79
2021/07/22 07:24:46;;;;;;;12.07;8.60;;;640.60;2073.60;;;;;;5129913;27;20032;-80
2021/07/22 07:27:11;;;;;;;9.55;5.90;;;640.60;2048.00;;;;;;5130471;27;20019;-78
2021/07/22 07:29:37;;;;;;;12.18;6.70;;;640.60;1920.00;;;;;;5130982;27;20039;-80
2021/07/22 07:32:03;;;;;;;14.13;6.63;;;640.70;1945.60;;;;;;5128117;27;20057;-79
2021/07/22 07:34:29;;;;;;;9.68;4.28;;;640.90;1945.60;;;;;;5130872;27;20114;-79
2021/07/22 07:36:56;;;;;;;8.55;4.30;;;665.60;1920.00;;;;;;5132466;27;20019;-79
2021/07/22 07:39:22;;;;;;;6.78;4.72;;;665.70;1945.60;;;;;;5132079;27;20022;-82
2021/07/22 07:41:48;;;;;;;12.45;5.32;;;665.90;1971.20;;;;;;5124227;27;20043;-80
2021/07/22 07:44:13;;;;;;;11.75;4.93;;;665.90;1945.60;;;;;;5125743;27;20103;-81
2021/07/22 07:46:39;;;;;;;8.18;4.90;;;665.90;1920.00;;;;;;5128112;27;20038;-81
2021/07/22 07:49:06;;;;;;;6.38;4.68;;;665.90;1894.40;;;;;;5128963;27;20020;-82
2021/07/22 07:51:32;;;;;;;8.30;4.65;;;665.90;1971.20;;;;;;5128431;27;20035;-80
2021/07/22 07:53:58;;;;;;;9.20;4.60;;;666.00;1945.60;;;;;;5128857;27;20027;-80
2021/07/22 07:56:24;;;;;;;9.85;4.53;;;666.10;1868.80;;;;;;5120482;27;20031;-81
2021/07/22 07:58:50;;;;;;;10.10;4.50;;;666.20;1894.40;;;;;;5126547;27;20031;-78
2021/07/22 08:01:15;;;;;;;10.18;4.50;;;666.20;1868.80;;;;;;5130271;27;20015;-78
2021/07/22 08:03:41;;;;;;;23.00;5.50;;;666.50;1868.80;;;;;;5120809;27;20062;-82
2021/07/22 08:06:07;;;;;;;10.40;4.55;;;691.40;1868.80;;;;;;5125639;27;20472;-79
2021/07/22 08:08:33;;;;;;;9.88;5.35;;;691.20;1868.80;;;;;;5122806;27;20038;-79
2021/07/22 08:11:00;;;;;;;7.55;5.40;;;691.30;1868.80;;;;;;5126141;27;20381;-79
2021/07/22 08:13:27;;;;;;;11.35;4.88;;;691.30;1894.40;;;;;;5126092;27;20096;-81
2021/07/22 08:15:56;;;;;;;13.25;4.85;;;691.30;1792.00;;;;;;5130423;27;20038;-80
2021/07/22 08:18:21;;;;;;;8.90;4.90;;;691.30;1766.40;;;;;;5133090;27;20023;-81
2021/07/22 08:20:47;;;;;;;9.77;3.80;;;691.40;1766.40;;;;;;5134931;27;20027;-81
2021/07/22 08:23:16;;;;;;;10.90;4.72;;;691.50;1664.00;;;;;;5126473;27;20043;-82
2021/07/22 08:25:41;;;;;;;7.78;4.63;;;691.60;1740.80;;;;;;5129086;27;20476;-79
2021/07/22 08:28:11;;;;;;;7.85;6.43;;;691.60;1715.20;;;;;;5133541;27;20074;-80
2021/07/22 08:30:36;;;;;;;11.25;6.68;;;691.60;1715.20;;;;;;5129492;27;20058;-79
2021/07/22 08:33:02;;;;;;;10.48;4.50;;;691.60;1689.60;;;;;;5132811;27;20055;-79
2021/07/22 08:35:28;;;;;;;9.45;4.25;;;691.70;1792.00;;;;;;5125804;27;20056;-79
2021/07/22 08:37:54;;;;;;;8.15;4.93;;;691.80;1766.40;;;;;;5120035;27;20392;-80
2021/07/22 08:40:19;;;;;;;15.02;5.90;;;691.80;1638.40;;;;;;5129980;27;20015;-79
2021/07/22 08:42:47;;;;;;;11.27;4.80;;;691.80;1638.40;;;;;;5119473;27;20031;-80
2021/07/22 08:45:14;;;;;;;10.77;5.43;;;691.80;1664.00;;;;;;5133162;27;20419;-78
2021/07/22 08:47:44;;;;;;;7.38;4.75;;;691.90;1664.00;;;;;;5128558;27;20120;-80
2021/07/22 08:50:12;;;;;;;10.02;5.60;;;691.80;1689.60;;;;;;5134419;27;20035;-79
2021/07/22 08:52:38;;;;;;;7.70;4.82;;;691.80;1689.60;;;;;;5115978;27;20031;-81
2021/07/22 08:55:05;;;;;;;9.60;4.00;;;691.80;1612.80;;;;;;5122441;27;20130;-80
2021/07/22 08:57:33;;;;;;;19.23;4.10;;;691.80;1612.80;;;;;;5133224;27;20030;-78
2021/07/22 09:00:00;;;;;;;9.43;3.70;;;691.80;1536.00;;;;;;5117882;27;20020;-77
2021/07/22 09:02:38;;;;;;;11.07;4.50;;;691.90;1561.60;;;;;;5130447;27;20110;-78
2021/07/22 09:05:05;;;;;;;9.65;4.45;;;691.90;1536.00;;;;;;5121709;27;20023;-80
2021/07/22 09:07:31;;;;;;;7.00;4.72;;;691.90;1561.60;;;;;;5133258;27;20122;-77
2021/07/22 09:10:06;;;;;;;7.72;4.78;;;692.10;1638.40;;;;;;5122405;27;20031;-76
2021/07/22 09:12:45;;;;;;;6.10;4.13;;;716.80;1638.40;;;;;;5125862;27;20024;-79
2021/07/22 09:15:34;;;;;;;10.80;4.65;;;716.80;1612.80;;;;;;5121713;27;20629;-76
2021/07/22 09:18:23;;;;;;;10.60;4.57;;;716.80;1612.80;;;;;;5039145;28;20029;-77
2021/07/22 09:20:50;;;;;;;12.57;4.57;;;717.00;1664.00;;;;;;5039747;28;20021;-78
2021/07/22 09:23:23;;;;;;;7.47;4.15;;;717.10;1638.40;;;;;;5036207;28;20060;-81
2021/07/22 09:25:50;;;;;;;6.13;4.20;;;717.20;1612.80;;;;;;5027752;28;20021;-79
2021/07/22 09:28:21;;;;;;;6.70;4.88;;;717.20;1638.40;;;;;;5050269;28;20033;-82
2021/07/22 09:31:08;;;;;;;5.93;3.78;;;717.40;1638.40;;;;;;5036453;28;20021;-81
2021/07/22 09:33:43;;;;;;;4.63;3.63;;;717.60;1612.80;;;;;;5021877;28;20032;-83
2021/07/22 09:36:20;;;;;;;6.05;3.75;;;717.70;1587.20;;;;;;5030450;28;20029;-81
2021/07/22 09:38:47;;;;;;;8.40;3.85;;;717.70;1561.60;;;;;;5029068;28;20084;-82
2021/07/22 09:41:23;;;;;;;6.63;3.75;;;717.70;1510.40;;;;;;5023313;28;20052;-83
2021/07/22 09:43:50;;;;;;;9.52;4.07;;;742.40;1561.60;;;;;;5022150;28;20490;-83
2021/07/22 09:46:16;;;;;;;9.32;3.58;;;742.60;1536.00;;;;;;5033307;28;20119;-82
2021/07/22 09:49:08;;;;;;;7.80;3.92;;;742.70;1484.80;;;;;;5019131;28;20510;-79
2021/07/22 09:51:34;;;;;;;6.85;3.83;;;742.80;1536.00;;;;;;5039541;28;20053;-82
2021/07/22 09:54:08;;;;;;;6.93;4.13;;;743.00;1510.40;;;;;;5038671;28;20053;-85
2021/07/22 09:56:36;;;;;;;9.38;3.90;;;743.00;1510.40;;;;;;5130724;27;20094;-79
2021/07/22 09:59:02;;;;;;;7.25;4.30;;;743.00;1484.80;;;;;;5119860;28;20030;-79
2021/07/22 10:01:28;;;;;;;7.32;3.72;;;743.20;1536.00;;;;;;5122904;27;20485;-76
2021/07/22 10:03:54;;;;;;;6.97;5.10;;;743.20;1510.40;;;;;;5118554;28;20054;-77
2021/07/22 10:06:20;;;;;;;5.00;4.15;;;768.00;1459.20;;;;;;5129360;28;20042;-84
2021/07/22 10:08:46;;;;;;;11.40;4.22;;;768.10;1459.20;;;;;;5128049;28;20469;-74
2021/07/22 10:11:13;;;;;;;5.70;4.18;;;768.10;1433.60;;;;;;5125557;27;20016;-87
2021/07/22 10:13:40;;;;;;;8.27;4.70;;;768.30;1408.00;;;;;;5128070;27;20480;-78
2021/07/22 10:16:11;;;;;;;11.18;3.97;;;768.30;1484.80;;;;;;5132476;28;20019;-82
2021/07/22 10:18:45;;;;;;;7.20;4.15;;;768.10;1433.60;;;;;;5119504;28;20027;-84
2021/07/22 10:21:12;;;;;;;5.10;3.90;;;743.10;1459.20;;;;;;5133947;27;20071;-89
2021/07/22 10:23:39;;;;;;;8.35;4.43;;;742.80;1459.20;;;;;;5126528;27;20521;-76
2021/07/22 10:26:05;;;;;;;7.47;4.32;;;743.00;1408.00;;;;;;5127822;28;20055;-85
2021/07/22 10:28:31;;;;;;;6.57;4.88;;;743.20;1382.40;;;;;;5126473;28;20023;-75
2021/07/22 10:30:58;;;;;;;12.35;4.50;;;743.20;1356.80;;;;;;5119368;28;20022;-86
2021/07/22 10:33:25;;;;;;;9.70;4.25;;;743.00;1459.20;;;;;;5124126;27;20020;-76
2021/07/22 10:35:55;;;;;;;8.38;4.78;;;742.80;1433.60;;;;;;5129845;27;20023;-80
2021/07/22 10:38:23;;;;;;;9.43;4.57;;;742.80;1382.40;;;;;;5131110;27;20102;-77
2021/07/22 10:41:01;;;;;;;6.85;4.63;;;743.00;1433.60;;;;;;5133980;27;20074;-88
2021/07/22 10:43:36;;;;;;;7.85;4.20;;;768.10;1382.40;;;;;;5125763;27;20039;-88
2021/07/22 10:46:03;;;;;;;9.77;3.83;;;768.40;1433.60;;;;;;5136518;27;20106;-90
2021/07/22 10:48:29;;;;;;;9.35;4.60;;;768.60;1433.60;;;;;;5132593;27;20106;-75
2021/07/22 10:50:54;;;;;;;7.00;4.75;;;768.40;1356.80;;;;;;5134420;27;20469;-78
2021/07/22 10:53:42;;;;;;;7.35;4.53;;;743.30;1408.00;;;;;;5136815;27;20031;-78
2021/07/22 10:56:17;;;;;;;6.32;3.72;;;743.00;1459.20;;;;;;5133761;27;20027;-81
2021/07/22 10:58:42;;;;;;;10.20;4.43;;;742.90;1459.20;;;;;;5126934;27;20027;-78
2021/07/22 11:01:08;;;;;;;11.50;4.40;;;742.80;1433.60;;;;;;5135787;27;20430;-80
2021/07/22 11:03:38;;;;;;;5.00;4.10;;;743.10;1433.60;;;;;;5132758;27;20031;-78
2021/07/22 11:06:14;;;;;;;5.60;3.85;;;768.00;1382.40;;;;;;5131036;27;20024;-80
2021/07/22 11:08:41;;;;;;;8.65;4.28;;;768.20;1331.20;;;;;;5123158;27;20047;-78
2021/07/22 11:11:13;;;;;;;10.75;4.05;;;768.60;1382.40;;;;;;5119621;27;20099;-76
2021/07/22 11:13:44;;;;;;;6.63;4.28;;;768.90;1356.80;;;;;;5128589;27;20019;-82
2021/07/22 11:16:36;;;;;;;7.93;4.90;;;793.70;1382.40;;;;;;5134360;27;20026;-78
2021/07/22 11:19:13;;;;;;;7.25;3.80;;;793.70;1331.20;;;;;;5122719;27;20523;-87
2021/07/22 11:21:47;;;;;;;7.90;4.43;;;793.70;1356.80;;;;;;5126276;27;20039;-77
2021/07/22 11:24:16;;;;;;;11.32;4.85;;;794.00;1356.80;;;;;;5130207;27;20027;-79
2021/07/22 11:26:43;;;;;;;6.78;4.43;;;794.00;1305.60;;;;;;5120305;27;20015;-77
2021/07/22 11:29:10;;;;;;;8.77;4.68;;;794.10;1305.60;;;;;;5127997;27;20059;-77
2021/07/22 11:31:55;;;;;;;7.78;4.20;;;794.00;1331.20;;;;;;5127293;27;20016;-78
2021/07/22 11:34:29;;;;;;;7.88;4.35;;;794.10;1331.20;;;;;;5125643;27;20437;-84
2021/07/22 11:36:56;;;;;;;7.10;4.47;;;794.30;1305.60;;;;;;5113594;28;20023;-78
2021/07/22 11:39:36;;;;;;;10.15;4.47;;;794.20;1305.60;;;;;;5124599;27;20109;-79
2021/07/22 11:42:12;;;;;;;7.70;4.28;;;793.80;1305.60;;;;;;5114541;27;20133;-78
2021/07/22 11:44:39;;;;;;;8.00;4.90;;;768.90;1254.40;;;;;;5118045;27;20398;-77
2021/07/22 11:47:12;;;;;;;11.82;4.82;;;768.60;1305.60;;;;;;5126080;27;20114;-84
2021/07/22 11:49:38;;;;;;;8.25;4.75;;;768.90;1254.40;;;;;;5115335;27;20024;-83
2021/07/22 11:52:04;;;;;;;7.40;4.18;;;793.70;1254.40;;;;;;5131277;27;20079;-83
2021/07/22 11:54:30;;;;;;;9.35;5.10;;;793.80;1280.00;;;;;;5131763;27;20031;-78
2021/07/22 11:56:57;;;;;;;7.10;4.25;;;794.00;1280.00;;;;;;5121723;27;20035;-87
2021/07/22 11:59:28;;;;;;;9.88;4.30;;;794.20;1203.20;;;;;;5124228;27;20024;-79
2021/07/22 12:01:54;;;;;;;6.47;4.50;;;794.30;1203.20;;;;;;5130187;27;20028;-79
2021/07/22 12:04:30;;;;;;;4.80;3.50;;;794.40;1228.80;;;;;;5127366;27;20072;-88
2021/07/22 12:06:58;;;;;;;6.22;3.80;;;794.20;1280.00;;;;;;5127040;27;20089;-79
2021/07/22 12:09:24;;;;;;;10.68;4.55;;;768.90;1280.00;;;;;;5126288;27;20023;-78